createdAt,value
2023-01-29T00:00:11.847Z,5.79
2023-01-29T00:03:18.121Z,5.83
2023-01-29T00:06:23.439Z,5.81
2023-01-29T00:09:27.079Z,5.75
2023-01-29T00:12:32.282Z,5.56
2023-01-29T00:15:36.014Z,5.66
2023-01-29T00:18:40.469Z,5.86
2023-01-29T00:21:44.156Z,5.46
2023-01-29T00:24:47.826Z,5.70
2023-01-29T00:27:52.923Z,5.51
2023-01-29T00:30:56.701Z,5.57
2023-01-29T00:34:00.375Z,5.69
2023-01-29T00:37:06.676Z,5.72
2023-01-29T00:40:11.796Z,5.55
2023-01-29T00:43:34.193Z,5.66
2023-01-29T00:46:37.880Z,5.44
2023-01-29T00:49:41.650Z,5.76
2023-01-29T00:52:46.044Z,5.87
2023-01-29T00:55:49.817Z,5.74
2023-01-29T00:58:55.266Z,5.67
2023-01-29T01:02:16.363Z,5.78
2023-01-29T01:05:20.737Z,5.93
2023-01-29T01:08:41.665Z,5.92
2023-01-29T01:11:45.362Z,6.00
2023-01-29T01:14:50.710Z,5.93
2023-01-29T01:17:55.640Z,5.80
2023-01-29T01:20:59.917Z,5.68
2023-01-29T01:24:06.260Z,5.71
2023-01-29T01:27:10.026Z,5.59
2023-01-29T01:30:18.014Z,5.80
2023-01-29T01:33:22.002Z,5.57
2023-01-29T01:36:25.501Z,5.51
2023-01-29T01:39:29.274Z,5.83
2023-01-29T01:42:33.722Z,5.80
2023-01-29T01:45:42.691Z,5.71
2023-01-29T01:48:49.224Z,5.87
2023-01-29T01:51:54.459Z,5.72
2023-01-29T01:54:58.986Z,5.92
2023-01-29T01:58:08.072Z,5.68
2023-01-29T02:01:13.694Z,5.70
2023-01-29T02:04:37.457Z,5.75
2023-01-29T02:08:01.720Z,5.68
2023-01-29T02:11:07.467Z,5.58
2023-01-29T02:14:11.070Z,5.67
2023-01-29T02:17:18.463Z,5.78
2023-01-29T02:20:26.020Z,5.73
2023-01-29T02:23:54.662Z,5.74
2023-01-29T02:27:09.026Z,5.41
2023-01-29T02:30:19.054Z,5.63
2023-01-29T02:33:31.887Z,5.74
2023-01-29T02:36:43.020Z,5.85
2023-01-29T02:39:54.964Z,5.75
2023-01-29T02:43:05.805Z,5.92
2023-01-29T02:46:17.486Z,5.82
2023-01-29T02:49:26.443Z,5.87
2023-01-29T02:52:38.733Z,5.78
2023-01-29T02:55:48.706Z,5.99
2023-01-29T02:58:58.962Z,5.96
2023-01-29T03:02:09.692Z,5.83
2023-01-29T03:05:19.543Z,5.80
2023-01-29T03:08:37.369Z,5.83
2023-01-29T03:11:50.277Z,5.63
2023-01-29T03:15:19.482Z,5.73
2023-01-29T03:18:46.125Z,5.86
2023-01-29T03:21:59.270Z,5.78
2023-01-29T03:25:24.363Z,5.71
2023-01-29T03:28:46.632Z,5.73
2023-01-29T03:32:08.440Z,5.75
2023-01-29T03:35:21.278Z,5.69
2023-01-29T03:38:31.879Z,5.74
2023-01-29T03:41:39.688Z,5.79
2023-01-29T03:44:52.081Z,5.69
2023-01-29T03:48:12.404Z,5.70
2023-01-29T03:51:27.735Z,5.61
2023-01-29T03:54:40.915Z,5.52
2023-01-29T03:57:53.881Z,5.54
2023-01-29T04:01:02.690Z,5.48
2023-01-29T04:04:15.994Z,5.52
2023-01-29T04:07:24.783Z,5.58
2023-01-29T04:10:40.135Z,5.57
2023-01-29T04:13:44.953Z,5.55
2023-01-29T04:16:54.756Z,5.68
2023-01-29T04:20:13.813Z,5.60
2023-01-29T04:23:25.288Z,5.62
2023-01-29T04:26:59.608Z,5.52
2023-01-29T04:30:15.968Z,5.38
2023-01-29T04:33:30.476Z,5.52
2023-01-29T04:36:40.269Z,5.67
2023-01-29T04:39:53.278Z,5.47
2023-01-29T04:43:05.405Z,5.65
2023-01-29T04:46:14.936Z,5.65
2023-01-29T04:49:30.494Z,5.72
2023-01-29T04:52:44.132Z,5.60
2023-01-29T04:55:52.670Z,5.33
2023-01-29T04:59:01.203Z,5.30
2023-01-29T05:02:07.695Z,5.31
2023-01-29T05:05:12.780Z,5.20
2023-01-29T05:08:20.553Z,5.25
2023-01-29T05:11:26.550Z,5.16
2023-01-29T05:14:33.842Z,4.98
2023-01-29T05:17:37.591Z,5.13
2023-01-29T05:20:43.853Z,5.25
2023-01-29T05:23:59.534Z,5.41
2023-01-29T05:27:22.493Z,5.64
2023-01-29T05:30:25.940Z,5.70
2023-01-29T05:33:31.493Z,5.77
2023-01-29T05:36:34.992Z,5.67
2023-01-29T05:39:38.530Z,5.78
2023-01-29T05:42:44.074Z,5.64
2023-01-29T05:45:55.033Z,5.68
2023-01-29T05:48:59.473Z,5.81
2023-01-29T05:52:03.045Z,5.87
2023-01-29T05:55:07.754Z,5.93
2023-01-29T05:58:12.849Z,5.81
2023-01-29T06:01:19.012Z,5.62
2023-01-29T06:04:22.697Z,5.51
2023-01-29T06:07:26.209Z,5.68
2023-01-29T06:10:30.169Z,5.74
2023-01-29T06:13:35.375Z,5.55
2023-01-29T06:16:39.101Z,5.52
2023-01-29T06:19:42.787Z,5.36
2023-01-29T06:22:46.504Z,5.67
2023-01-29T06:25:50.104Z,5.78
2023-01-29T06:28:55.106Z,5.73
2023-01-29T06:31:58.863Z,5.45
2023-01-29T06:35:02.563Z,5.65
2023-01-29T06:38:06.137Z,5.67
2023-01-29T06:41:11.412Z,5.62
2023-01-29T06:44:16.660Z,5.34
2023-01-29T06:47:20.247Z,5.70
2023-01-29T06:50:23.900Z,5.61
2023-01-29T06:53:27.687Z,5.50
2023-01-29T06:56:31.460Z,5.76
2023-01-29T06:59:36.576Z,5.91
2023-01-29T07:02:40.267Z,5.84
2023-01-29T07:05:43.876Z,5.96
2023-01-29T07:08:47.640Z,5.65
2023-01-29T07:11:51.361Z,5.66
2023-01-29T07:14:56.476Z,5.74
2023-01-29T07:18:01.276Z,5.90
2023-01-29T07:21:07.721Z,5.77
2023-01-29T07:24:11.586Z,5.76
2023-01-29T07:27:15.487Z,5.65
2023-01-29T07:30:21.623Z,5.79
2023-01-29T07:33:25.696Z,6.24
2023-01-29T07:36:29.970Z,6.30
2023-01-29T07:39:33.680Z,6.06
2023-01-29T07:42:37.536Z,6.29
2023-01-29T07:45:42.719Z,6.10
2023-01-29T07:48:46.581Z,6.27
2023-01-29T07:51:50.365Z,6.42
2023-01-29T07:54:54.085Z,6.43
2023-01-29T07:57:58.552Z,6.69
2023-01-29T08:01:07.825Z,6.74
2023-01-29T08:04:11.799Z,6.70
2023-01-29T08:07:15.505Z,6.76
2023-01-29T08:10:19.636Z,6.83
2023-01-29T08:13:23.644Z,6.76
2023-01-29T08:16:28.881Z,6.87
2023-01-29T08:19:32.600Z,7.06
2023-01-29T08:22:36.318Z,7.09
2023-01-29T08:25:40.103Z,6.90
2023-01-29T08:28:43.868Z,7.04
2023-01-29T08:31:49.091Z,7.19
2023-01-29T08:34:52.930Z,7.15
2023-01-29T08:37:58.577Z,7.01
2023-01-29T08:41:02.238Z,6.65
2023-01-29T08:44:06.625Z,6.49
2023-01-29T08:47:11.969Z,6.82
2023-01-29T08:50:16.365Z,6.77
2023-01-29T08:53:24.608Z,6.86
2023-01-29T08:56:28.317Z,6.73
2023-01-29T08:59:31.958Z,6.70
2023-01-29T09:02:37.099Z,6.74
2023-01-29T09:05:42.071Z,6.73
2023-01-29T09:08:45.964Z,6.66
2023-01-29T09:11:49.656Z,6.53
2023-01-29T09:14:53.555Z,6.66
2023-01-29T09:17:58.593Z,6.97
2023-01-29T09:21:02.936Z,6.79
2023-01-29T09:24:07.641Z,6.75
2023-01-29T09:27:11.308Z,6.90
2023-01-29T09:30:15.717Z,7.14
2023-01-29T09:33:21.191Z,6.84
2023-01-29T09:36:24.929Z,6.43
2023-01-29T09:39:28.606Z,6.66
2023-01-29T09:42:42.097Z,6.86
2023-01-29T09:45:54.982Z,6.87
2023-01-29T09:49:05.858Z,6.67
2023-01-29T09:52:16.658Z,6.86
2023-01-29T09:55:26.500Z,6.88
2023-01-29T09:58:33.783Z,6.60
2023-01-29T10:01:46.353Z,7.04
2023-01-29T10:05:09.928Z,6.99
2023-01-29T10:08:38.337Z,6.75
2023-01-29T10:11:51.254Z,7.03
2023-01-29T10:15:04.128Z,7.04
2023-01-29T10:18:47.488Z,6.69
2023-01-29T10:22:07.617Z,6.96
2023-01-29T10:25:13.560Z,7.13
2023-01-29T10:28:21.725Z,7.16
2023-01-29T10:31:28.870Z,7.24
2023-01-29T10:34:37.994Z,6.90
2023-01-29T10:37:44.340Z,6.99
2023-01-29T10:40:55.030Z,7.22
2023-01-29T10:44:14.192Z,7.26
2023-01-29T10:47:45.982Z,7.29
2023-01-29T10:50:53.847Z,7.68
2023-01-29T10:54:11.306Z,7.70
2023-01-29T10:57:24.723Z,7.49
2023-01-29T11:00:31.917Z,7.90
2023-01-29T11:03:35.856Z,8.03
2023-01-29T11:06:39.699Z,7.79
2023-01-29T11:09:52.188Z,7.84
2023-01-29T11:12:56.884Z,7.82
2023-01-29T11:16:00.840Z,7.71
2023-01-29T11:19:04.684Z,7.68
2023-01-29T11:22:15.449Z,7.65
2023-01-29T11:25:21.839Z,7.40
2023-01-29T11:28:40.769Z,7.43
2023-01-29T11:31:44.619Z,7.81
2023-01-29T11:35:05.279Z,7.95
2023-01-29T11:38:19.783Z,8.37
2023-01-29T11:41:25.660Z,8.21
2023-01-29T11:44:33.095Z,8.33
2023-01-29T11:47:37.095Z,8.47
2023-01-29T11:50:40.808Z,8.75
2023-01-29T11:53:46.958Z,8.71
2023-01-29T11:56:53.055Z,8.79
2023-01-29T11:59:59.874Z,8.62
2023-01-29T12:03:12.834Z,8.68
2023-01-29T12:06:21.409Z,8.53
2023-01-29T12:09:28.467Z,8.57
2023-01-29T12:12:43.861Z,8.52
2023-01-29T12:15:48.761Z,8.63
2023-01-29T12:18:56.881Z,8.28
2023-01-29T12:22:05.862Z,8.53
2023-01-29T12:25:22.968Z,8.24
2023-01-29T12:28:42.805Z,8.35
2023-01-29T12:31:55.094Z,8.23
2023-01-29T12:35:06.109Z,7.95
2023-01-29T12:38:17.757Z,8.11
2023-01-29T12:41:35.199Z,8.22
2023-01-29T12:44:45.245Z,8.05
2023-01-29T12:47:51.569Z,8.25
2023-01-29T12:50:57.245Z,8.28
2023-01-29T12:54:06.923Z,8.19
2023-01-29T12:57:20.223Z,8.14
2023-01-29T13:00:29.158Z,7.99
2023-01-29T13:03:40.911Z,8.00
2023-01-29T13:06:49.793Z,8.18
2023-01-29T13:09:58.737Z,8.10
2023-01-29T13:13:07.799Z,8.17
2023-01-29T13:16:16.042Z,8.09
2023-01-29T13:19:27.663Z,8.15
2023-01-29T13:22:36.849Z,8.17
2023-01-29T13:25:40.660Z,8.13
2023-01-29T13:28:46.827Z,8.14
2023-01-29T13:31:53.977Z,7.94
2023-01-29T13:35:00.346Z,8.05
2023-01-29T13:38:04.576Z,8.12
2023-01-29T13:41:10.093Z,8.06
2023-01-29T13:44:23.546Z,8.09
2023-01-29T13:47:31.401Z,8.16
2023-01-29T13:50:38.927Z,7.92
2023-01-29T13:53:44.624Z,8.00
2023-01-29T13:57:00.739Z,8.03
2023-01-29T14:00:05.602Z,8.00
2023-01-29T14:04:05.735Z,7.92
2023-01-29T14:07:51.918Z,7.90
2023-01-29T14:11:33.878Z,8.07
2023-01-29T14:15:04.481Z,8.01
2023-01-29T14:18:18.635Z,7.86
2023-01-29T14:21:25.477Z,8.11
2023-01-29T14:24:33.110Z,8.12
2023-01-29T14:27:38.591Z,8.13
2023-01-29T14:30:49.741Z,8.19
2023-01-29T14:33:54.701Z,7.89
2023-01-29T14:37:02.896Z,7.79
2023-01-29T14:40:21.816Z,7.95
2023-01-29T14:43:26.026Z,8.02
2023-01-29T14:46:46.526Z,8.23
2023-01-29T14:49:52.137Z,8.02
2023-01-29T14:53:01.219Z,8.01
2023-01-29T14:56:14.581Z,7.91
2023-01-29T14:59:22.281Z,7.90
2023-01-29T15:02:33.444Z,7.95
2023-01-29T15:05:40.546Z,7.78
2023-01-29T15:08:50.323Z,7.76
2023-01-29T15:12:04.825Z,7.85
2023-01-29T15:15:18.790Z,7.87
2023-01-29T15:18:33.202Z,7.87
2023-01-29T15:21:36.852Z,7.66
2023-01-29T15:24:42.527Z,7.49
2023-01-29T15:27:48.060Z,7.56
2023-01-29T15:30:55.589Z,7.71
2023-01-29T15:34:03.226Z,7.60
2023-01-29T15:37:06.981Z,7.51
2023-01-29T15:40:18.144Z,7.58
2023-01-29T15:43:25.456Z,7.54
2023-01-29T15:46:31.748Z,7.63
2023-01-29T15:49:37.848Z,7.07
2023-01-29T15:52:42.250Z,7.42
2023-01-29T15:55:47.646Z,7.33
2023-01-29T15:58:54.433Z,7.36
2023-01-29T16:01:58.367Z,7.17
2023-01-29T16:05:02.982Z,7.22
2023-01-29T16:08:07.961Z,7.22
2023-01-29T16:11:12.184Z,7.12
2023-01-29T16:14:21.844Z,7.17
2023-01-29T16:17:27.397Z,6.74
2023-01-29T16:20:39.113Z,6.73
2023-01-29T16:23:45.749Z,6.70
2023-01-29T16:26:51.647Z,7.05
2023-01-29T16:29:56.713Z,7.17
2023-01-29T16:33:05.302Z,6.86
2023-01-29T16:36:15.122Z,6.94
2023-01-29T16:39:22.771Z,6.97
2023-01-29T16:42:31.395Z,7.12
2023-01-29T16:45:36.668Z,6.91
2023-01-29T16:48:40.430Z,6.95
2023-01-29T16:51:44.131Z,6.75
2023-01-29T16:54:47.853Z,6.80
2023-01-29T16:57:54.822Z,6.61
2023-01-29T17:01:02.634Z,6.76
2023-01-29T17:04:11.314Z,6.67
2023-01-29T17:07:21.503Z,6.68
2023-01-29T17:10:26.530Z,6.55
2023-01-29T17:13:35.872Z,6.52
2023-01-29T17:16:51.875Z,6.57
2023-01-29T17:19:55.658Z,6.50
2023-01-29T17:22:59.394Z,6.36
2023-01-29T17:26:03.462Z,6.46
2023-01-29T17:29:08.524Z,6.47
2023-01-29T17:32:13.664Z,6.43
2023-01-29T17:35:18.702Z,6.30
2023-01-29T17:38:26.326Z,6.05
2023-01-29T17:41:32.715Z,6.20
2023-01-29T17:44:36.584Z,6.25
2023-01-29T17:47:41.724Z,6.12
2023-01-29T17:50:48.752Z,6.05
2023-01-29T17:53:52.477Z,6.04
2023-01-29T17:56:56.587Z,6.11
2023-01-29T18:00:00.314Z,6.23
2023-01-29T18:03:05.574Z,6.04
2023-01-29T18:06:10.464Z,6.01
2023-01-29T18:09:15.314Z,6.06
2023-01-29T18:12:19.241Z,5.80
2023-01-29T18:15:23.206Z,5.97
2023-01-29T18:18:29.485Z,5.84
2023-01-29T18:21:33.290Z,5.98
2023-01-29T18:24:37.049Z,5.94
2023-01-29T18:27:40.865Z,5.87
2023-01-29T18:30:47.349Z,5.91
2023-01-29T18:33:52.684Z,5.75
2023-01-29T18:36:56.420Z,6.04
2023-01-29T18:40:00.448Z,5.96
2023-01-29T18:43:04.514Z,5.86
2023-01-29T18:46:09.051Z,5.82
2023-01-29T18:49:14.276Z,5.74
2023-01-29T18:52:17.954Z,5.46
2023-01-29T18:55:22.180Z,5.54
2023-01-29T18:58:35.972Z,5.72
2023-01-29T19:01:39.972Z,5.68
2023-01-29T19:04:45.260Z,5.64
2023-01-29T19:07:49.049Z,5.56
2023-01-29T19:10:52.692Z,5.67
2023-01-29T19:13:56.491Z,5.63
2023-01-29T19:17:01.758Z,5.51
2023-01-29T19:20:07.782Z,5.78
2023-01-29T19:23:11.653Z,5.78
2023-01-29T19:26:15.869Z,5.83
2023-01-29T19:29:20.384Z,5.56
2023-01-29T19:32:24.463Z,5.70
2023-01-29T19:35:29.612Z,5.61
2023-01-29T19:38:38.347Z,5.49
2023-01-29T19:41:42.387Z,5.78
2023-01-29T19:44:46.323Z,5.77
2023-01-29T19:47:50.029Z,5.69
2023-01-29T19:50:56.258Z,5.45
2023-01-29T19:54:00.374Z,5.75
2023-01-29T19:57:04.720Z,5.99
2023-01-29T20:00:12.371Z,5.95
2023-01-29T20:03:16.425Z,6.06
2023-01-29T20:06:25.339Z,5.93
2023-01-29T20:09:30.564Z,6.04
2023-01-29T20:12:34.900Z,6.03
2023-01-29T20:15:38.531Z,5.67
2023-01-29T20:18:42.211Z,5.89
2023-01-29T20:21:49.980Z,5.97
2023-01-29T20:24:53.708Z,5.87
2023-01-29T20:27:57.414Z,5.90
2023-01-29T20:31:01.285Z,6.01
2023-01-29T20:34:05.214Z,6.12
2023-01-29T20:37:10.309Z,6.15
2023-01-29T20:40:15.890Z,5.98
2023-01-29T20:43:19.749Z,6.04
2023-01-29T20:46:23.484Z,6.06
2023-01-29T20:49:28.639Z,5.88
2023-01-29T20:52:33.721Z,5.96
2023-01-29T20:55:37.647Z,5.98
2023-01-29T20:58:41.966Z,5.88
2023-01-29T21:01:45.828Z,5.79
2023-01-29T21:04:49.576Z,5.84
2023-01-29T21:07:54.770Z,5.92
2023-01-29T21:10:58.459Z,5.71
2023-01-29T21:14:02.179Z,5.66
2023-01-29T21:17:06.294Z,6.01
2023-01-29T21:20:11.276Z,5.94
2023-01-29T21:23:16.461Z,5.85
2023-01-29T21:26:20.268Z,5.77
2023-01-29T21:29:24.041Z,5.67
2023-01-29T21:32:28.254Z,5.81
2023-01-29T21:35:32.157Z,5.83
2023-01-29T21:38:37.383Z,5.85
2023-01-29T21:41:58.367Z,5.89
2023-01-29T21:45:02.021Z,5.77
2023-01-29T21:48:06.173Z,5.83
2023-01-29T21:51:10.300Z,5.61
2023-01-29T21:54:15.636Z,5.77
2023-01-29T21:57:19.339Z,5.78
2023-01-29T22:00:23.239Z,5.89
2023-01-29T22:03:26.993Z,6.02
2023-01-29T22:06:30.645Z,5.81
2023-01-29T22:09:35.829Z,5.84
2023-01-29T22:12:39.732Z,5.90
2023-01-29T22:15:43.444Z,6.00
2023-01-29T22:18:47.287Z,5.73
2023-01-29T22:21:51.335Z,5.79
2023-01-29T22:24:58.467Z,6.00
2023-01-29T22:28:02.169Z,5.86
2023-01-29T22:31:06.866Z,5.68
2023-01-29T22:34:11.333Z,5.77
2023-01-29T22:37:15.071Z,5.90
2023-01-29T22:40:20.570Z,5.86
2023-01-29T22:43:26.238Z,5.61
2023-01-29T22:46:30.041Z,5.61
2023-01-29T22:49:33.724Z,5.74
2023-01-29T22:52:39.671Z,5.56
2023-01-29T22:55:44.707Z,5.79
2023-01-29T22:58:52.048Z,5.98
2023-01-29T23:01:55.809Z,5.86
2023-01-29T23:04:59.552Z,6.13
2023-01-29T23:08:03.192Z,5.89
2023-01-29T23:11:15.231Z,5.97
2023-01-29T23:14:19.200Z,6.05
2023-01-29T23:17:22.994Z,5.98
2023-01-29T23:20:26.749Z,5.90
2023-01-29T23:23:30.782Z,5.78
2023-01-29T23:26:53.140Z,5.92
2023-01-29T23:29:56.883Z,6.04
2023-01-29T23:33:00.642Z,6.05
2023-01-29T23:36:04.592Z,6.10
2023-01-29T23:39:08.562Z,6.00
2023-01-29T23:42:13.725Z,5.82
2023-01-29T23:45:17.710Z,5.92
2023-01-29T23:48:21.696Z,5.82
2023-01-29T23:51:25.583Z,6.04
2023-01-29T23:54:29.481Z,5.97
2023-01-29T23:57:34.546Z,6.02
